createdAt,value
2019-04-16T00:02:32.913Z,57.10
2019-04-16T00:05:19.670Z,56.70
2019-04-16T00:07:58.335Z,56.80
2019-04-16T00:10:50.877Z,57.20
2019-04-16T00:13:29.975Z,57.30
2019-04-16T00:15:58.167Z,57.30
2019-04-16T00:18:25.399Z,57.20
2019-04-16T00:21:10.028Z,57.00
2019-04-16T00:23:51.221Z,56.90
2019-04-16T00:26:18.529Z,57.20
2019-04-16T00:28:45.693Z,57.50
2019-04-16T00:31:12.963Z,57.70
2019-04-16T00:33:42.823Z,57.50
2019-04-16T00:36:09.335Z,57.40
2019-04-16T00:38:41.031Z,57.40
2019-04-16T00:41:05.700Z,57.90
2019-04-16T00:43:32.932Z,58.20
2019-04-16T00:46:00.172Z,58.00
2019-04-16T00:48:27.424Z,58.40
2019-04-16T00:50:54.657Z,58.70
2019-04-16T00:53:21.812Z,59.00
2019-04-16T00:55:49.340Z,59.30
2019-04-16T00:58:19.524Z,59.50
2019-04-16T01:00:45.835Z,59.30
2019-04-16T01:03:13.090Z,59.50
2019-04-16T01:05:40.343Z,59.40
2019-04-16T01:08:07.618Z,59.70
2019-04-16T01:10:34.836Z,60.00
2019-04-16T01:13:02.071Z,59.90
2019-04-16T01:15:31.904Z,60.10
2019-04-16T01:17:58.567Z,60.50
2019-04-16T01:20:25.792Z,61.00
2019-04-16T01:22:53.048Z,61.50
2019-04-16T01:25:23.159Z,61.10
2019-04-16T01:27:54.465Z,61.00
2019-04-16T01:30:36.334Z,61.80
2019-04-16T01:33:14.456Z,63.00
2019-04-16T01:35:51.727Z,63.40
2019-04-16T01:38:27.912Z,64.00
2019-04-16T01:41:00.355Z,63.80
2019-04-16T01:43:27.556Z,64.00
2019-04-16T01:45:54.783Z,65.70
2019-04-16T01:48:22.075Z,67.20
2019-04-16T01:50:49.124Z,67.40
2019-04-16T01:53:18.309Z,67.50
2019-04-16T01:55:45.254Z,68.00
2019-04-16T01:58:12.217Z,67.50
2019-04-16T02:00:39.984Z,68.50
2019-04-16T02:03:07.004Z,68.00
2019-04-16T02:05:34.248Z,68.50
2019-04-16T02:08:01.492Z,68.60
2019-04-16T02:10:28.740Z,69.00
2019-04-16T02:12:55.950Z,69.80
2019-04-16T02:15:23.187Z,70.40
2019-04-16T02:17:50.427Z,69.80
2019-04-16T02:20:17.651Z,70.30
2019-04-16T02:22:45.183Z,71.70
2019-04-16T02:25:13.496Z,72.60
2019-04-16T02:27:40.724Z,72.10
2019-04-16T02:30:07.999Z,72.00
2019-04-16T02:32:35.237Z,71.30
2019-04-16T02:35:02.727Z,71.00
2019-04-16T02:37:35.346Z,70.50
2019-04-16T02:39:59.096Z,71.50
2019-04-16T02:42:30.804Z,70.70
2019-04-16T02:44:55.547Z,70.90
2019-04-16T02:47:22.811Z,71.00
2019-04-16T02:49:56.378Z,72.20
2019-04-16T02:52:38.776Z,72.30
2019-04-16T02:55:17.998Z,72.40
2019-04-16T02:57:59.505Z,73.00
2019-04-16T03:00:42.830Z,73.20
2019-04-16T03:03:13.971Z,73.60
2019-04-16T03:05:44.088Z,74.20
2019-04-16T03:08:11.311Z,74.60
2019-04-16T03:10:38.568Z,75.70
2019-04-16T03:13:05.776Z,75.30
2019-04-16T03:16:06.240Z,76.10
2019-04-16T03:18:41.047Z,76.40
2019-04-16T03:21:08.364Z,76.80
2019-04-16T03:23:37.498Z,76.30
2019-04-16T03:26:04.807Z,75.90
2019-04-16T03:28:32.108Z,76.50
2019-04-16T03:30:59.359Z,76.50
2019-04-16T03:33:26.632Z,76.70
2019-04-16T03:35:57.618Z,76.80
2019-04-16T03:38:23.128Z,76.50
2019-04-16T03:40:50.420Z,77.40
2019-04-16T03:43:17.713Z,77.80
2019-04-16T03:45:45.021Z,78.30
2019-04-16T03:48:12.158Z,78.10
2019-04-16T03:50:39.539Z,78.30
2019-04-16T03:53:06.762Z,79.50
2019-04-16T03:55:34.070Z,78.20
2019-04-16T03:58:05.387Z,79.10
2019-04-16T04:00:30.560Z,80.40
2019-04-16T04:02:57.819Z,79.80
2019-04-16T04:05:25.100Z,79.20
2019-04-16T04:07:55.054Z,79.60
2019-04-16T04:10:30.510Z,79.10
2019-04-16T04:12:50.469Z,79.50
2019-04-16T04:15:17.332Z,79.40
2019-04-16T04:17:44.813Z,79.10
2019-04-16T04:20:14.648Z,79.80
2019-04-16T04:22:41.267Z,79.20
2019-04-16T04:25:08.149Z,79.60
2019-04-16T04:27:35.076Z,79.70
2019-04-16T04:30:02.181Z,80.30
2019-04-16T04:32:29.323Z,81.50
2019-04-16T04:34:56.239Z,81.20
2019-04-16T04:37:23.591Z,80.90
2019-04-16T04:39:50.829Z,81.20
2019-04-16T04:42:19.394Z,80.90
2019-04-16T04:44:47.247Z,81.00
2019-04-16T04:47:15.548Z,81.40
2019-04-16T04:49:43.708Z,81.20
2019-04-16T04:52:13.636Z,81.50
2019-04-16T04:54:40.188Z,81.60
2019-04-16T04:57:07.440Z,81.80
2019-04-16T04:59:36.731Z,82.20
2019-04-16T05:02:03.832Z,82.20
2019-04-16T05:04:46.190Z,82.60
2019-04-16T05:07:13.738Z,82.20
2019-04-16T05:09:41.012Z,81.20
2019-04-16T05:12:08.610Z,80.90
2019-04-16T05:14:39.120Z,80.10
2019-04-16T05:17:07.466Z,79.50
2019-04-16T05:19:34.991Z,78.10
2019-04-16T05:22:02.298Z,77.40
2019-04-16T05:24:30.021Z,75.80
2019-04-16T05:26:57.360Z,74.90
2019-04-16T05:29:24.520Z,73.80
2019-04-16T05:31:54.567Z,73.00
2019-04-16T05:34:21.047Z,72.30
2019-04-16T05:36:48.335Z,72.70
2019-04-16T05:39:15.568Z,73.50
2019-04-16T05:41:42.785Z,73.20
2019-04-16T05:44:10.041Z,73.20
2019-04-16T05:46:38.374Z,73.00
2019-04-16T05:49:06.036Z,72.80
2019-04-16T05:51:33.346Z,71.80
2019-04-16T05:54:08.434Z,69.70
2019-04-16T05:56:43.865Z,68.60
2019-04-16T05:59:11.139Z,66.50
2019-04-16T06:02:01.667Z,65.80
2019-04-16T06:04:28.903Z,63.60
2019-04-16T06:06:56.159Z,66.90
2019-04-16T06:09:23.995Z,66.80
2019-04-16T06:11:51.248Z,66.60
2019-04-16T06:14:37.999Z,62.70
2019-04-16T06:17:19.847Z,60.90
2019-04-16T06:20:06.578Z,61.80
2019-04-16T06:22:53.327Z,61.10
2019-04-16T06:25:41.290Z,60.00
2019-04-16T06:28:47.259Z,59.80
2019-04-16T06:31:28.244Z,61.00
2019-04-16T06:34:10.012Z,60.50
2019-04-16T06:36:44.631Z,60.10
2019-04-16T06:39:21.500Z,60.10
2019-04-16T06:42:08.268Z,59.00
2019-04-16T06:44:41.809Z,57.80
2019-04-16T06:47:28.544Z,57.10
2019-04-16T06:50:30.711Z,57.90
2019-04-16T06:53:25.233Z,58.10
2019-04-16T06:56:13.134Z,58.20
2019-04-16T06:58:51.408Z,56.70
2019-04-16T07:01:41.514Z,55.90
2019-04-16T07:04:33.408Z,54.20
2019-04-16T07:07:21.574Z,55.90
2019-04-16T07:10:16.268Z,56.00
2019-04-16T07:12:43.560Z,54.70
2019-04-16T07:15:10.808Z,52.70
2019-04-16T07:17:40.469Z,53.40
2019-04-16T07:20:13.033Z,52.80
2019-04-16T07:22:39.804Z,50.70
2019-04-16T07:25:07.174Z,49.80
2019-04-16T07:27:45.573Z,50.10
2019-04-16T07:30:19.995Z,50.30
2019-04-16T07:33:08.333Z,49.70
2019-04-16T07:35:55.085Z,50.10
2019-04-16T07:38:35.124Z,49.70
2019-04-16T07:41:17.790Z,49.30
2019-04-16T07:44:08.114Z,51.50
2019-04-16T07:46:50.384Z,51.20
2019-04-16T07:49:40.226Z,50.80
2019-04-16T07:52:45.179Z,50.30
2019-04-16T07:55:30.613Z,51.80
2019-04-16T07:57:57.895Z,51.40
2019-04-16T08:00:25.227Z,49.80
2019-04-16T08:02:53.637Z,49.70
2019-04-16T08:05:27.617Z,49.30
2019-04-16T08:07:53.808Z,47.70
2019-04-16T08:10:21.290Z,47.20
2019-04-16T08:13:06.351Z,46.60
2019-04-16T08:15:33.674Z,46.80
2019-04-16T08:18:00.965Z,44.40
2019-04-16T08:20:28.239Z,44.30
2019-04-16T08:22:59.312Z,45.10
2019-04-16T08:25:27.540Z,45.20
2019-04-16T08:27:55.046Z,44.60
2019-04-16T08:30:22.340Z,43.60
2019-04-16T08:32:49.753Z,44.10
2019-04-16T08:35:17.548Z,44.50
2019-04-16T08:37:49.147Z,43.50
2019-04-16T08:40:14.038Z,43.20
2019-04-16T08:42:44.829Z,45.40
2019-04-16T08:45:10.530Z,44.30
2019-04-16T08:47:37.751Z,45.10
2019-04-16T08:50:05.080Z,44.60
2019-04-16T08:52:32.305Z,43.20
2019-04-16T08:54:59.615Z,43.60
2019-04-16T08:57:31.788Z,42.90
2019-04-16T08:59:56.378Z,42.00
2019-04-16T09:02:27.093Z,42.20
2019-04-16T09:04:52.979Z,42.70
2019-04-16T09:07:38.290Z,42.40
2019-04-16T09:10:17.155Z,41.60
2019-04-16T09:12:41.236Z,42.70
2019-04-16T09:15:05.437Z,40.70
2019-04-16T09:17:43.559Z,39.90
2019-04-16T09:20:12.899Z,39.30
2019-04-16T09:22:48.826Z,39.40
2019-04-16T09:25:27.443Z,40.10
2019-04-16T09:28:03.105Z,41.70
2019-04-16T09:30:49.823Z,41.50
2019-04-16T09:33:25.460Z,43.20
2019-04-16T09:36:18.433Z,42.20
2019-04-16T09:38:51.387Z,42.00
2019-04-16T09:41:37.117Z,40.80
2019-04-16T09:44:04.347Z,41.00
2019-04-16T09:46:50.444Z,41.40
2019-04-16T09:49:00.939Z,42.10
2019-04-16T09:51:29.923Z,41.30
2019-04-16T09:53:57.029Z,42.50
2019-04-16T09:56:29.078Z,42.20
2019-04-16T09:58:59.912Z,44.70
2019-04-16T10:01:39.303Z,41.90
2019-04-16T10:04:07.684Z,42.90
2019-04-16T10:06:34.887Z,43.60
2019-04-16T10:09:02.142Z,42.90
2019-04-16T10:11:29.534Z,42.40
2019-04-16T10:13:56.859Z,43.60
2019-04-16T10:16:25.905Z,41.80
2019-04-16T10:18:53.297Z,40.50
2019-04-16T10:21:20.635Z,40.50
2019-04-16T10:24:06.106Z,39.50
2019-04-16T10:26:33.474Z,39.20
2019-04-16T10:29:05.824Z,38.70
2019-04-16T10:31:32.054Z,39.70
2019-04-16T10:33:59.404Z,38.00
2019-04-16T10:36:26.655Z,41.20
2019-04-16T10:39:04.783Z,42.50
2019-04-16T10:41:35.661Z,40.10
2019-04-16T10:44:37.138Z,40.80
2019-04-16T10:47:25.461Z,41.20
2019-04-16T10:50:10.451Z,41.30
2019-04-16T10:53:08.965Z,39.70
2019-04-16T10:55:58.578Z,40.40
2019-04-16T10:58:44.118Z,42.80
2019-04-16T11:01:20.545Z,39.30
2019-04-16T11:04:13.339Z,41.70
2019-04-16T11:06:42.490Z,41.60
2019-04-16T11:09:09.855Z,41.70
2019-04-16T11:11:37.418Z,40.30
2019-04-16T11:14:04.659Z,39.40
2019-04-16T11:16:31.908Z,39.20
2019-04-16T11:18:59.268Z,39.50
2019-04-16T11:21:26.561Z,38.70
2019-04-16T11:23:53.895Z,39.50
2019-04-16T11:26:21.153Z,39.10
2019-04-16T11:28:48.395Z,38.90
2019-04-16T11:31:18.035Z,38.80
2019-04-16T11:33:45.380Z,39.60
2019-04-16T11:36:19.559Z,39.20
2019-04-16T11:38:41.848Z,40.30
2019-04-16T11:41:09.100Z,41.10
2019-04-16T11:43:36.394Z,39.80
2019-04-16T11:46:03.562Z,40.90
2019-04-16T11:48:30.597Z,40.20
2019-04-16T11:50:58.124Z,40.60
2019-04-16T11:53:25.345Z,40.60
2019-04-16T11:55:52.963Z,39.70
2019-04-16T11:58:38.336Z,39.50
2019-04-16T12:01:22.969Z,39.10
2019-04-16T12:03:56.117Z,36.50
2019-04-16T12:06:43.444Z,37.00
2019-04-16T12:09:33.018Z,36.70
2019-04-16T12:12:08.446Z,35.30
2019-04-16T12:14:55.328Z,35.10
2019-04-16T12:17:42.243Z,33.50
2019-04-16T12:20:42.987Z,34.00
2019-04-16T12:23:28.016Z,35.20
2019-04-16T12:26:09.780Z,35.80
2019-04-16T12:28:57.586Z,35.40
2019-04-16T12:31:39.182Z,34.60
2019-04-16T12:34:31.666Z,33.50
2019-04-16T12:37:24.401Z,34.00
2019-04-16T12:40:03.637Z,34.50
2019-04-16T12:42:42.393Z,35.00
2019-04-16T12:45:41.026Z,34.80
2019-04-16T12:48:46.069Z,33.70
2019-04-16T12:51:19.484Z,33.20
2019-04-16T12:54:04.912Z,33.30
2019-04-16T12:57:03.772Z,34.50
2019-04-16T12:59:40.383Z,34.70
2019-04-16T13:02:36.541Z,35.60
2019-04-16T13:05:23.657Z,35.40
2019-04-16T13:08:08.878Z,34.70
2019-04-16T13:10:43.296Z,35.70
2019-04-16T13:13:21.216Z,36.70
2019-04-16T13:16:16.788Z,36.30
2019-04-16T13:19:02.221Z,36.10
2019-04-16T13:21:32.827Z,36.30
2019-04-16T13:24:18.375Z,34.20
2019-04-16T13:26:49.997Z,34.90
2019-04-16T13:29:20.279Z,33.80
2019-04-16T13:31:47.422Z,33.90
2019-04-16T13:34:18.308Z,35.90
2019-04-16T13:36:43.760Z,35.10
2019-04-16T13:39:24.965Z,35.20
2019-04-16T13:41:52.205Z,37.00
2019-04-16T13:44:20.966Z,37.10
2019-04-16T13:46:48.253Z,36.70
2019-04-16T13:49:24.201Z,36.20
2019-04-16T13:51:49.811Z,36.60
2019-04-16T13:54:27.953Z,36.70
2019-04-16T13:56:58.524Z,37.00
2019-04-16T14:00:03.218Z,36.80
2019-04-16T14:02:44.309Z,36.90
2019-04-16T14:05:11.894Z,37.60
2019-04-16T14:07:39.179Z,36.80
2019-04-16T14:10:06.440Z,36.80
2019-04-16T14:12:41.765Z,36.20
2019-04-16T14:15:06.328Z,37.60
2019-04-16T14:17:35.027Z,34.80
2019-04-16T14:20:01.477Z,36.80
2019-04-16T14:22:28.776Z,36.70
2019-04-16T14:24:56.056Z,35.20
2019-04-16T14:27:23.361Z,36.90
2019-04-16T14:29:50.620Z,37.30
2019-04-16T14:32:17.883Z,38.10
2019-04-16T14:34:55.487Z,36.20
2019-04-16T14:37:22.709Z,35.80
2019-04-16T14:39:55.588Z,36.10
2019-04-16T14:42:23.143Z,36.10
2019-04-16T14:44:54.449Z,37.90
2019-04-16T14:47:21.766Z,38.00
2019-04-16T14:49:50.825Z,37.70
2019-04-16T14:52:18.234Z,37.20
2019-04-16T14:55:05.215Z,38.30
2019-04-16T14:57:32.582Z,39.20
2019-04-16T15:00:18.004Z,39.00
2019-04-16T15:03:07.899Z,39.80
2019-04-16T15:05:41.288Z,40.30
2019-04-16T15:08:29.197Z,40.70
2019-04-16T15:11:31.159Z,39.50
2019-04-16T15:14:13.864Z,40.40
2019-04-16T15:17:12.205Z,40.80
2019-04-16T15:20:00.048Z,42.00
2019-04-16T15:22:45.565Z,40.90
2019-04-16T15:25:22.036Z,41.00
2019-04-16T15:28:10.288Z,40.80
2019-04-16T15:31:03.299Z,41.70
2019-04-16T15:33:52.612Z,41.60
2019-04-16T15:36:22.552Z,41.10
2019-04-16T15:39:12.171Z,41.30
2019-04-16T15:41:54.459Z,42.50
2019-04-16T15:44:44.256Z,41.40
2019-04-16T15:47:25.848Z,42.00
2019-04-16T15:50:18.935Z,42.30
2019-04-16T15:52:54.177Z,42.00
2019-04-16T15:55:38.376Z,42.30
2019-04-16T15:58:25.512Z,41.70
2019-04-16T16:01:14.363Z,42.10
2019-04-16T16:04:01.178Z,42.50
2019-04-16T16:06:30.005Z,42.80
2019-04-16T16:09:07.796Z,43.60
2019-04-16T16:11:39.712Z,43.70
2019-04-16T16:14:07.459Z,43.60
2019-04-16T16:16:41.937Z,43.40
2019-04-16T16:19:04.103Z,43.80
2019-04-16T16:21:31.465Z,42.90
2019-04-16T16:23:58.804Z,43.20
2019-04-16T16:26:26.121Z,43.20
2019-04-16T16:28:53.549Z,43.60
2019-04-16T16:31:20.806Z,43.50
2019-04-16T16:33:48.240Z,43.50
2019-04-16T16:36:15.566Z,44.30
2019-04-16T16:38:48.331Z,44.50
2019-04-16T16:41:12.216Z,44.70
2019-04-16T16:43:39.698Z,45.10
2019-04-16T16:46:27.976Z,45.00
2019-04-16T16:48:55.235Z,45.10
2019-04-16T16:51:23.183Z,45.50
2019-04-16T16:54:01.096Z,46.10
2019-04-16T16:56:37.644Z,46.20
2019-04-16T16:59:27.215Z,46.60
2019-04-16T17:02:11.729Z,47.30
2019-04-16T17:04:42.680Z,47.60
2019-04-16T17:07:09.419Z,48.10
2019-04-16T17:09:36.750Z,49.60
2019-04-16T17:12:04.064Z,51.90
2019-04-16T17:14:36.529Z,52.80
2019-04-16T17:17:13.140Z,53.90
2019-04-16T17:19:30.169Z,54.80
2019-04-16T17:21:57.477Z,57.00
2019-04-16T17:24:24.829Z,58.10
2019-04-16T17:26:52.383Z,58.10
2019-04-16T17:29:19.782Z,59.10
2019-04-16T17:31:47.978Z,59.00
2019-04-16T17:34:15.269Z,60.00
2019-04-16T17:36:42.561Z,60.70
2019-04-16T17:39:10.823Z,61.60
2019-04-16T17:41:45.978Z,62.60
2019-04-16T17:44:27.377Z,62.30
2019-04-16T17:47:31.852Z,63.70
2019-04-16T17:50:03.684Z,65.30
2019-04-16T17:52:37.157Z,64.80
2019-04-16T17:55:29.807Z,66.20
2019-04-16T17:58:17.246Z,67.00
2019-04-16T18:00:56.484Z,67.50
2019-04-16T18:03:40.313Z,68.80
2019-04-16T18:06:25.897Z,68.80
2019-04-16T18:09:19.808Z,70.90
2019-04-16T18:12:06.604Z,70.70
2019-04-16T18:14:52.035Z,71.00
2019-04-16T18:17:46.835Z,72.00
2019-04-16T18:20:26.522Z,72.80
2019-04-16T18:23:12.043Z,74.50
2019-04-16T18:25:58.945Z,74.50
2019-04-16T18:28:34.492Z,74.80
2019-04-16T18:31:10.541Z,75.20
2019-04-16T18:33:48.821Z,76.00
2019-04-16T18:36:27.701Z,76.90
2019-04-16T18:39:25.687Z,77.90
2019-04-16T18:42:12.480Z,78.10
2019-04-16T18:45:01.790Z,79.10
2019-04-16T18:47:34.924Z,79.70
2019-04-16T18:50:04.895Z,79.50
2019-04-16T18:52:32.304Z,80.20
2019-04-16T18:54:59.573Z,79.50
2019-04-16T18:57:26.856Z,78.50
2019-04-16T18:59:54.175Z,80.20
2019-04-16T19:02:23.374Z,80.00
2019-04-16T19:04:51.130Z,82.10
2019-04-16T19:07:18.447Z,79.70
2019-04-16T19:09:45.755Z,80.70
2019-04-16T19:12:12.999Z,80.70
2019-04-16T19:14:40.278Z,81.40
2019-04-16T19:17:07.550Z,81.40
2019-04-16T19:19:35.225Z,82.60
2019-04-16T19:22:03.074Z,82.90
2019-04-16T19:24:30.488Z,83.60
2019-04-16T19:26:58.093Z,83.00
2019-04-16T19:29:25.414Z,83.90
2019-04-16T19:31:56.751Z,83.70
2019-04-16T19:34:24.574Z,84.20
2019-04-16T19:36:51.829Z,84.60
2019-04-16T19:39:20.215Z,85.30
2019-04-16T19:41:47.531Z,85.40
2019-04-16T19:44:15.012Z,86.30
2019-04-16T19:46:45.972Z,87.00
2019-04-16T19:49:11.816Z,87.90
2019-04-16T19:51:41.306Z,88.50
2019-04-16T19:54:08.411Z,89.60
2019-04-16T19:56:35.744Z,89.30
2019-04-16T19:59:03.012Z,89.60
2019-04-16T20:01:30.337Z,90.20
2019-04-16T20:03:57.700Z,90.00
2019-04-16T20:06:26.268Z,90.30
2019-04-16T20:08:53.780Z,90.20
2019-04-16T20:11:21.740Z,90.20
2019-04-16T20:13:49.107Z,90.40
2019-04-16T20:16:16.571Z,90.70
2019-04-16T20:18:50.838Z,90.50
2019-04-16T20:21:13.152Z,90.30
2019-04-16T20:23:40.493Z,90.60
2019-04-16T20:26:08.035Z,90.70
2019-04-16T20:28:35.402Z,91.10
2019-04-16T20:31:04.701Z,91.10
2019-04-16T20:33:32.296Z,90.60
2019-04-16T20:35:59.585Z,90.50
2019-04-16T20:38:29.283Z,90.80
2019-04-16T20:40:56.194Z,90.70
2019-04-16T20:43:23.621Z,90.90
2019-04-16T20:45:50.961Z,91.10
2019-04-16T20:48:18.322Z,91.40
2019-04-16T20:50:45.625Z,91.50
2019-04-16T20:53:13.239Z,91.70
2019-04-16T20:55:40.490Z,92.10
2019-04-16T20:58:07.876Z,92.10
2019-04-16T21:00:42.298Z,92.50
2019-04-16T21:03:21.087Z,92.80
2019-04-16T21:05:36.582Z,93.10
2019-04-16T21:08:04.583Z,93.20
2019-04-16T21:10:35.370Z,93.10
2019-04-16T21:13:01.495Z,93.10
2019-04-16T21:15:28.833Z,92.90
2019-04-16T21:17:56.366Z,93.10
2019-04-16T21:20:23.639Z,93.10
2019-04-16T21:22:51.692Z,93.30
2019-04-16T21:25:19.096Z,93.40
2019-04-16T21:28:02.003Z,93.40
2019-04-16T21:30:29.941Z,93.40
2019-04-16T21:33:13.665Z,93.10
2019-04-16T21:35:43.723Z,93.20
2019-04-16T21:38:21.099Z,92.80
2019-04-16T21:40:48.405Z,92.90
2019-04-16T21:43:15.776Z,92.80
2019-04-16T21:45:45.613Z,92.80
2019-04-16T21:48:12.662Z,92.70
2019-04-16T21:50:40.076Z,92.90
2019-04-16T21:53:07.743Z,93.10
2019-04-16T21:55:35.494Z,93.20
2019-04-16T21:58:04.448Z,93.20
2019-04-16T22:00:50.215Z,93.20
2019-04-16T22:03:18.480Z,93.00
2019-04-16T22:05:48.356Z,93.20
2019-04-16T22:08:14.888Z,93.30
2019-04-16T22:10:42.197Z,93.30
2019-04-16T22:13:09.443Z,93.10
2019-04-16T22:15:36.728Z,93.00
2019-04-16T22:18:07.539Z,93.10
2019-04-16T22:20:35.677Z,93.60
2019-04-16T22:23:02.205Z,93.60
2019-04-16T22:25:29.525Z,93.50
2019-04-16T22:27:56.765Z,93.40
2019-04-16T22:30:24.008Z,93.60
2019-04-16T22:32:51.285Z,93.70
2019-04-16T22:35:18.693Z,93.30
2019-04-16T22:37:45.944Z,93.30
2019-04-16T22:40:32.881Z,93.50
2019-04-16T22:43:25.150Z,93.30
2019-04-16T22:45:59.817Z,93.50
2019-04-16T22:48:27.115Z,93.80
2019-04-16T22:50:54.405Z,93.90
2019-04-16T22:53:21.734Z,93.60
2019-04-16T22:55:48.996Z,93.30
2019-04-16T22:58:23.277Z,93.20
2019-04-16T23:00:51.284Z,93.40
2019-04-16T23:03:19.528Z,93.40
2019-04-16T23:05:47.438Z,93.70
2019-04-16T23:08:14.711Z,93.60
2019-04-16T23:10:42.001Z,93.80
2019-04-16T23:13:09.236Z,93.80
2019-04-16T23:15:36.503Z,94.00
2019-04-16T23:18:04.091Z,93.90
2019-04-16T23:20:36.145Z,93.80
2019-04-16T23:23:00.614Z,93.50
2019-04-16T23:25:28.212Z,93.70
2019-04-16T23:27:55.587Z,93.80
2019-04-16T23:30:22.807Z,93.80
2019-04-16T23:32:50.191Z,94.20
2019-04-16T23:35:17.430Z,94.30
2019-04-16T23:37:44.779Z,94.40
2019-04-16T23:40:12.255Z,94.40
2019-04-16T23:42:50.427Z,94.40
2019-04-16T23:45:34.304Z,94.50
2019-04-16T23:48:18.859Z,94.40
2019-04-16T23:51:00.436Z,94.60
2019-04-16T23:53:46.045Z,94.60
2019-04-16T23:56:28.744Z,94.70
2019-04-16T23:59:05.554Z,94.60
